Allen, Maryland
Current Conditions -  °F | °C
As of 8:54 AM on Thursday 29 Jan 2015 (Local Time) from KSBY Reporting Station
Clear Clear  
Wind Chill: 30°   Ceiling: Unl
Heat Index: 30°   Visibility: 10mi
Dew Point: 13°   Wind: 0mph
Humidity: 49%   Direction: NA
Pressure: 30.34"   Gusts: NA
Location:  38.29°N, 75.69°W
Report Text: KSBY 291354Z 00000KT 10SM CLR M01/M11 A3034 RMK AO2 SLP276 T10111106
Loading
Personal Weather Stations






























Interactive Weather Map New forecast layout! Learn more

10-Day Weather Forecast

Advertisements
Track Severe Weather on mobile